Terminal Aerodrome Forecast
Issued by NWS Wichita, KS

Home | Current Version | Previous Version | Text Only | Print | Product List | Glossary On
Versions: 1 2 3 4 5 6 7 8 9 10 11 12 13 14 15 16 17 18 19 20
000
FTUS43 KICT 220522
TAFICT
TAF
KICT 220522Z 2206/2306 26010KT P6SM BKN120
     FM220800 24013G19KT P6SM OVC020
     FM221300 30020G30KT 6SM -SN OVC015
     FM221500 31026G37KT 4SM -SN OVC015
     FM222000 31026G37KT P6SM OVC030
     FM230000 32019G27KT P6SM BKN100=

USA.gov is the U.S. government's official web portal to all federal, state and local government web resources and services.